sensor_id;sensor_type;location;lat;lon;timestamp;P1;durP1;ratioP1;P2;durP2;ratioP2
74510;SDS011;62991;50.040;18.400;2024-02-14T00:00:27;58.05;;;22.60;;
74510;SDS011;62991;50.040;18.400;2024-02-14T00:03:28;50.28;;;19.08;;
74510;SDS011;62991;50.040;18.400;2024-02-14T00:06:28;58.83;;;21.98;;
74510;SDS011;62991;50.040;18.400;2024-02-14T00:09:29;67.18;;;26.77;;
74510;SDS011;62991;50.040;18.400;2024-02-14T00:12:30;52.35;;;20.65;;
74510;SDS011;62991;50.040;18.400;2024-02-14T00:15:31;60.95;;;22.42;;
74510;SDS011;62991;50.040;18.400;2024-02-14T00:18:31;71.93;;;24.63;;
74510;SDS011;62991;50.040;18.400;2024-02-14T00:21:32;59.10;;;24.25;;
74510;SDS011;62991;50.040;18.400;2024-02-14T00:24:34;59.90;;;22.27;;
74510;SDS011;62991;50.040;18.400;2024-02-14T00:27:35;59.17;;;21.83;;
74510;SDS011;62991;50.040;18.400;2024-02-14T00:30:36;66.03;;;26.88;;
74510;SDS011;62991;50.040;18.400;2024-02-14T00:33:37;66.07;;;25.38;;
74510;SDS011;62991;50.040;18.400;2024-02-14T00:36:38;61.75;;;23.77;;
74510;SDS011;62991;50.040;18.400;2024-02-14T00:39:38;62.22;;;22.15;;
74510;SDS011;62991;50.040;18.400;2024-02-14T00:42:39;58.33;;;22.52;;
74510;SDS011;62991;50.040;18.400;2024-02-14T00:45:40;61.92;;;21.33;;
74510;SDS011;62991;50.040;18.400;2024-02-14T00:48:41;61.75;;;23.67;;
74510;SDS011;62991;50.040;18.400;2024-02-14T00:51:42;54.33;;;20.80;;
74510;SDS011;62991;50.040;18.400;2024-02-14T00:54:42;61.95;;;22.95;;
74510;SDS011;62991;50.040;18.400;2024-02-14T00:57:43;64.95;;;24.77;;
74510;SDS011;62991;50.040;18.400;2024-02-14T01:00:44;72.05;;;26.55;;
74510;SDS011;62991;50.040;18.400;2024-02-14T01:03:44;57.50;;;20.38;;
74510;SDS011;62991;50.040;18.400;2024-02-14T01:06:45;60.80;;;22.13;;
74510;SDS011;62991;50.040;18.400;2024-02-14T01:09:48;62.85;;;23.55;;
74510;SDS011;62991;50.040;18.400;2024-02-14T01:12:50;50.28;;;20.48;;
74510;SDS011;62991;50.040;18.400;2024-02-14T01:15:50;51.20;;;19.85;;
74510;SDS011;62991;50.040;18.400;2024-02-14T01:18:51;48.75;;;18.35;;
74510;SDS011;62991;50.040;18.400;2024-02-14T01:21:52;47.90;;;17.88;;
74510;SDS011;62991;50.040;18.400;2024-02-14T01:24:52;44.50;;;19.58;;
74510;SDS011;62991;50.040;18.400;2024-02-14T01:27:54;46.97;;;17.80;;
74510;SDS011;62991;50.040;18.400;2024-02-14T01:30:56;46.53;;;16.95;;
74510;SDS011;62991;50.040;18.400;2024-02-14T01:33:57;45.65;;;16.23;;
74510;SDS011;62991;50.040;18.400;2024-02-14T01:36:59;37.80;;;16.30;;
74510;SDS011;62991;50.040;18.400;2024-02-14T01:39:59;41.80;;;16.45;;
74510;SDS011;62991;50.040;18.400;2024-02-14T01:43:01;45.78;;;16.52;;
74510;SDS011;62991;50.040;18.400;2024-02-14T01:46:05;39.38;;;14.65;;
74510;SDS011;62991;50.040;18.400;2024-02-14T01:49:06;40.47;;;15.93;;
74510;SDS011;62991;50.040;18.400;2024-02-14T01:52:08;40.47;;;17.25;;
74510;SDS011;62991;50.040;18.400;2024-02-14T01:55:09;40.42;;;16.73;;
74510;SDS011;62991;50.040;18.400;2024-02-14T01:58:13;41.20;;;15.25;;
74510;SDS011;62991;50.040;18.400;2024-02-14T02:01:14;43.70;;;18.52;;
74510;SDS011;62991;50.040;18.400;2024-02-14T02:04:18;40.60;;;15.50;;
74510;SDS011;62991;50.040;18.400;2024-02-14T02:07:18;39.45;;;16.13;;
74510;SDS011;62991;50.040;18.400;2024-02-14T02:10:20;39.47;;;16.10;;
74510;SDS011;62991;50.040;18.400;2024-02-14T02:13:22;37.42;;;16.48;;
74510;SDS011;62991;50.040;18.400;2024-02-14T02:16:23;38.53;;;15.57;;
74510;SDS011;62991;50.040;18.400;2024-02-14T02:19:23;49.40;;;17.35;;
74510;SDS011;62991;50.040;18.400;2024-02-14T02:22:24;37.58;;;16.77;;
74510;SDS011;62991;50.040;18.400;2024-02-14T02:25:25;33.88;;;16.63;;
74510;SDS011;62991;50.040;18.400;2024-02-14T02:28:26;43.22;;;17.90;;
74510;SDS011;62991;50.040;18.400;2024-02-14T02:31:27;45.08;;;18.77;;
74510;SDS011;62991;50.040;18.400;2024-02-14T02:34:27;48.88;;;20.88;;
74510;SDS011;62991;50.040;18.400;2024-02-14T02:37:28;40.25;;;19.13;;
74510;SDS011;62991;50.040;18.400;2024-02-14T02:40:29;41.97;;;16.33;;
74510;SDS011;62991;50.040;18.400;2024-02-14T02:43:30;41.45;;;19.23;;
74510;SDS011;62991;50.040;18.400;2024-02-14T02:46:31;50.05;;;19.38;;
74510;SDS011;62991;50.040;18.400;2024-02-14T02:49:32;34.28;;;16.92;;
74510;SDS011;62991;50.040;18.400;2024-02-14T02:52:33;44.75;;;16.20;;
74510;SDS011;62991;50.040;18.400;2024-02-14T02:55:34;45.95;;;17.23;;
74510;SDS011;62991;50.040;18.400;2024-02-14T02:58:37;41.65;;;17.90;;
74510;SDS011;62991;50.040;18.400;2024-02-14T03:01:38;41.75;;;17.13;;
74510;SDS011;62991;50.040;18.400;2024-02-14T03:04:40;43.83;;;18.67;;
74510;SDS011;62991;50.040;18.400;2024-02-14T03:07:41;41.60;;;16.75;;
74510;SDS011;62991;50.040;18.400;2024-02-14T03:10:45;33.60;;;14.25;;
74510;SDS011;62991;50.040;18.400;2024-02-14T03:13:46;33.03;;;14.18;;
74510;SDS011;62991;50.040;18.400;2024-02-14T03:16:49;41.58;;;16.98;;
74510;SDS011;62991;50.040;18.400;2024-02-14T03:19:49;36.22;;;15.13;;
74510;SDS011;62991;50.040;18.400;2024-02-14T03:22:51;36.85;;;15.75;;
74510;SDS011;62991;50.040;18.400;2024-02-14T03:25:53;38.15;;;17.33;;
74510;SDS011;62991;50.040;18.400;2024-02-14T03:28:54;37.00;;;16.98;;
74510;SDS011;62991;50.040;18.400;2024-02-14T03:31:55;42.33;;;15.60;;
74510;SDS011;62991;50.040;18.400;2024-02-14T03:34:58;43.03;;;17.05;;
74510;SDS011;62991;50.040;18.400;2024-02-14T03:38:01;39.15;;;17.23;;
74510;SDS011;62991;50.040;18.400;2024-02-14T03:41:02;38.20;;;15.60;;
74510;SDS011;62991;50.040;18.400;2024-02-14T03:44:02;44.00;;;16.25;;
74510;SDS011;62991;50.040;18.400;2024-02-14T03:47:04;37.53;;;15.32;;
74510;SDS011;62991;50.040;18.400;2024-02-14T03:50:05;40.78;;;15.75;;
74510;SDS011;62991;50.040;18.400;2024-02-14T03:53:07;29.60;;;15.63;;
74510;SDS011;62991;50.040;18.400;2024-02-14T03:56:07;38.65;;;15.50;;
74510;SDS011;62991;50.040;18.400;2024-02-14T03:59:08;39.03;;;15.18;;
74510;SDS011;62991;50.040;18.400;2024-02-14T04:02:09;30.50;;;14.20;;
74510;SDS011;62991;50.040;18.400;2024-02-14T04:05:10;35.83;;;13.85;;
74510;SDS011;62991;50.040;18.400;2024-02-14T04:08:11;33.95;;;14.30;;
74510;SDS011;62991;50.040;18.400;2024-02-14T04:11:11;42.25;;;17.02;;
74510;SDS011;62991;50.040;18.400;2024-02-14T04:14:13;36.00;;;14.13;;
74510;SDS011;62991;50.040;18.400;2024-02-14T04:17:14;58.05;;;21.55;;
74510;SDS011;62991;50.040;18.400;2024-02-14T04:20:15;53.83;;;22.42;;
74510;SDS011;62991;50.040;18.400;2024-02-14T04:23:15;44.80;;;15.88;;
74510;SDS011;62991;50.040;18.400;2024-02-14T04:26:19;38.10;;;16.63;;
74510;SDS011;62991;50.040;18.400;2024-02-14T04:29:21;71.80;;;30.75;;
74510;SDS011;62991;50.040;18.400;2024-02-14T04:32:22;45.53;;;20.33;;
74510;SDS011;62991;50.040;18.400;2024-02-14T04:35:22;38.28;;;16.88;;
74510;SDS011;62991;50.040;18.400;2024-02-14T04:38:23;33.70;;;14.80;;
74510;SDS011;62991;50.040;18.400;2024-02-14T04:41:24;31.13;;;13.40;;
74510;SDS011;62991;50.040;18.400;2024-02-14T04:44:25;35.42;;;17.27;;
74510;SDS011;62991;50.040;18.400;2024-02-14T04:47:25;40.53;;;15.52;;
74510;SDS011;62991;50.040;18.400;2024-02-14T04:50:26;39.70;;;16.77;;
74510;SDS011;62991;50.040;18.400;2024-02-14T04:53:27;32.50;;;13.50;;
74510;SDS011;62991;50.040;18.400;2024-02-14T04:56:28;37.83;;;16.08;;
74510;SDS011;62991;50.040;18.400;2024-02-14T04:59:28;38.60;;;17.88;;
74510;SDS011;62991;50.040;18.400;2024-02-14T05:02:29;37.13;;;15.63;;
74510;SDS011;62991;50.040;18.400;2024-02-14T05:05:30;37.50;;;15.50;;
74510;SDS011;62991;50.040;18.400;2024-02-14T05:08:30;30.50;;;15.75;;
74510;SDS011;62991;50.040;18.400;2024-02-14T05:11:32;34.95;;;14.75;;
74510;SDS011;62991;50.040;18.400;2024-02-14T05:14:32;41.15;;;17.60;;
74510;SDS011;62991;50.040;18.400;2024-02-14T05:17:33;68.57;;;26.73;;
74510;SDS011;62991;50.040;18.400;2024-02-14T05:20:35;68.53;;;27.55;;
74510;SDS011;62991;50.040;18.400;2024-02-14T05:23:35;88.07;;;30.90;;
74510;SDS011;62991;50.040;18.400;2024-02-14T05:26:36;77.57;;;30.48;;
74510;SDS011;62991;50.040;18.400;2024-02-14T05:29:37;78.95;;;30.00;;
74510;SDS011;62991;50.040;18.400;2024-02-14T05:32:38;48.15;;;18.27;;
74510;SDS011;62991;50.040;18.400;2024-02-14T05:35:39;56.95;;;21.30;;
74510;SDS011;62991;50.040;18.400;2024-02-14T05:38:40;33.90;;;14.20;;
74510;SDS011;62991;50.040;18.400;2024-02-14T05:41:41;40.63;;;15.77;;
74510;SDS011;62991;50.040;18.400;2024-02-14T05:44:42;40.05;;;18.67;;
74510;SDS011;62991;50.040;18.400;2024-02-14T05:47:43;37.03;;;14.95;;
74510;SDS011;62991;50.040;18.400;2024-02-14T05:50:44;28.83;;;12.18;;
74510;SDS011;62991;50.040;18.400;2024-02-14T05:53:44;31.00;;;12.52;;
74510;SDS011;62991;50.040;18.400;2024-02-14T05:56:46;31.73;;;12.75;;
74510;SDS011;62991;50.040;18.400;2024-02-14T05:59:47;32.15;;;11.48;;
74510;SDS011;62991;50.040;18.400;2024-02-14T06:02:48;35.85;;;13.85;;
74510;SDS011;62991;50.040;18.400;2024-02-14T06:05:49;35.10;;;12.13;;
74510;SDS011;62991;50.040;18.400;2024-02-14T06:08:50;40.15;;;13.13;;
74510;SDS011;62991;50.040;18.400;2024-02-14T06:11:51;27.95;;;10.85;;
74510;SDS011;62991;50.040;18.400;2024-02-14T06:14:51;40.00;;;13.35;;
74510;SDS011;62991;50.040;18.400;2024-02-14T06:17:52;40.70;;;15.63;;
74510;SDS011;62991;50.040;18.400;2024-02-14T06:20:52;40.03;;;14.35;;
74510;SDS011;62991;50.040;18.400;2024-02-14T06:23:53;38.60;;;16.02;;
74510;SDS011;62991;50.040;18.400;2024-02-14T06:26:54;35.53;;;14.15;;
74510;SDS011;62991;50.040;18.400;2024-02-14T06:29:55;44.05;;;15.52;;
74510;SDS011;62991;50.040;18.400;2024-02-14T06:32:56;34.33;;;13.40;;
74510;SDS011;62991;50.040;18.400;2024-02-14T06:36:00;38.45;;;12.88;;
74510;SDS011;62991;50.040;18.400;2024-02-14T06:39:01;31.02;;;12.93;;
74510;SDS011;62991;50.040;18.400;2024-02-14T06:42:02;37.38;;;15.13;;
74510;SDS011;62991;50.040;18.400;2024-02-14T06:45:02;43.58;;;14.23;;
74510;SDS011;62991;50.040;18.400;2024-02-14T06:48:04;26.70;;;11.48;;
74510;SDS011;62991;50.040;18.400;2024-02-14T06:51:06;41.40;;;10.65;;
74510;SDS011;62991;50.040;18.400;2024-02-14T06:54:07;31.70;;;12.77;;
74510;SDS011;62991;50.040;18.400;2024-02-14T06:57:08;32.72;;;11.23;;
74510;SDS011;62991;50.040;18.400;2024-02-14T07:00:08;39.08;;;12.05;;
74510;SDS011;62991;50.040;18.400;2024-02-14T07:03:10;29.83;;;10.50;;
74510;SDS011;62991;50.040;18.400;2024-02-14T07:06:10;32.03;;;10.45;;
74510;SDS011;62991;50.040;18.400;2024-02-14T07:09:11;30.23;;;11.57;;
74510;SDS011;62991;50.040;18.400;2024-02-14T07:12:12;32.20;;;10.73;;
74510;SDS011;62991;50.040;18.400;2024-02-14T07:15:12;23.67;;;9.55;;
74510;SDS011;62991;50.040;18.400;2024-02-14T07:18:13;23.02;;;9.77;;
74510;SDS011;62991;50.040;18.400;2024-02-14T07:21:14;25.67;;;8.80;;
74510;SDS011;62991;50.040;18.400;2024-02-14T07:24:15;22.58;;;8.55;;
74510;SDS011;62991;50.040;18.400;2024-02-14T07:27:15;19.15;;;6.47;;
74510;SDS011;62991;50.040;18.400;2024-02-14T07:30:20;17.13;;;7.55;;
74510;SDS011;62991;50.040;18.400;2024-02-14T07:33:21;29.10;;;8.20;;
74510;SDS011;62991;50.040;18.400;2024-02-14T07:36:22;23.80;;;9.40;;
74510;SDS011;62991;50.040;18.400;2024-02-14T07:39:22;27.08;;;11.15;;
74510;SDS011;62991;50.040;18.400;2024-02-14T07:42:23;25.65;;;10.55;;
74510;SDS011;62991;50.040;18.400;2024-02-14T07:45:24;27.70;;;10.75;;
74510;SDS011;62991;50.040;18.400;2024-02-14T07:48:25;22.33;;;9.15;;
74510;SDS011;62991;50.040;18.400;2024-02-14T07:51:26;22.75;;;10.98;;
74510;SDS011;62991;50.040;18.400;2024-02-14T07:54:28;25.90;;;9.98;;
74510;SDS011;62991;50.040;18.400;2024-02-14T07:57:29;25.20;;;9.52;;
74510;SDS011;62991;50.040;18.400;2024-02-14T08:00:30;10.93;;;4.63;;
74510;SDS011;62991;50.040;18.400;2024-02-14T08:03:30;15.25;;;8.85;;
74510;SDS011;62991;50.040;18.400;2024-02-14T08:06:31;25.25;;;10.88;;
74510;SDS011;62991;50.040;18.400;2024-02-14T08:09:32;19.70;;;7.65;;
74510;SDS011;62991;50.040;18.400;2024-02-14T08:12:33;30.10;;;9.07;;
74510;SDS011;62991;50.040;18.400;2024-02-14T08:15:33;21.70;;;8.05;;
74510;SDS011;62991;50.040;18.400;2024-02-14T08:18:34;8.80;;;4.63;;
74510;SDS011;62991;50.040;18.400;2024-02-14T08:21:35;19.88;;;7.50;;
74510;SDS011;62991;50.040;18.400;2024-02-14T08:24:36;17.23;;;7.35;;
74510;SDS011;62991;50.040;18.400;2024-02-14T08:27:37;14.32;;;6.32;;
74510;SDS011;62991;50.040;18.400;2024-02-14T08:30:37;15.10;;;6.95;;
74510;SDS011;62991;50.040;18.400;2024-02-14T08:33:38;9.18;;;4.20;;
74510;SDS011;62991;50.040;18.400;2024-02-14T08:36:39;15.27;;;5.60;;
74510;SDS011;62991;50.040;18.400;2024-02-14T08:39:41;14.70;;;6.13;;
74510;SDS011;62991;50.040;18.400;2024-02-14T08:42:42;11.93;;;5.05;;
74510;SDS011;62991;50.040;18.400;2024-02-14T08:45:43;8.00;;;3.70;;
74510;SDS011;62991;50.040;18.400;2024-02-14T08:48:43;4.78;;;2.55;;
74510;SDS011;62991;50.040;18.400;2024-02-14T08:51:48;10.85;;;4.35;;
74510;SDS011;62991;50.040;18.400;2024-02-14T08:54:49;13.90;;;5.63;;
74510;SDS011;62991;50.040;18.400;2024-02-14T08:57:50;13.95;;;6.75;;
74510;SDS011;62991;50.040;18.400;2024-02-14T09:00:51;13.63;;;5.53;;
74510;SDS011;62991;50.040;18.400;2024-02-14T09:03:52;10.07;;;4.60;;
74510;SDS011;62991;50.040;18.400;2024-02-14T09:06:53;13.82;;;5.80;;
74510;SDS011;62991;50.040;18.400;2024-02-14T09:09:54;15.13;;;6.68;;
74510;SDS011;62991;50.040;18.400;2024-02-14T09:12:54;11.55;;;5.07;;
74510;SDS011;62991;50.040;18.400;2024-02-14T09:15:56;12.77;;;5.22;;
74510;SDS011;62991;50.040;18.400;2024-02-14T09:18:56;17.23;;;5.70;;
74510;SDS011;62991;50.040;18.400;2024-02-14T09:21:58;16.05;;;5.55;;
74510;SDS011;62991;50.040;18.400;2024-02-14T09:24:59;12.57;;;5.88;;
74510;SDS011;62991;50.040;18.400;2024-02-14T09:27:59;13.57;;;5.82;;
74510;SDS011;62991;50.040;18.400;2024-02-14T09:31:00;13.10;;;5.45;;
74510;SDS011;62991;50.040;18.400;2024-02-14T09:34:04;15.02;;;5.88;;
74510;SDS011;62991;50.040;18.400;2024-02-14T09:37:05;13.73;;;5.97;;
74510;SDS011;62991;50.040;18.400;2024-02-14T09:40:06;11.55;;;3.83;;
74510;SDS011;62991;50.040;18.400;2024-02-14T09:43:20;10.18;;;4.18;;
74510;SDS011;62991;50.040;18.400;2024-02-14T09:46:25;10.90;;;4.85;;
74510;SDS011;62991;50.040;18.400;2024-02-14T09:49:26;9.70;;;3.50;;
74510;SDS011;62991;50.040;18.400;2024-02-14T09:52:28;8.27;;;3.88;;
74510;SDS011;62991;50.040;18.400;2024-02-14T09:55:31;13.02;;;4.88;;
74510;SDS011;62991;50.040;18.400;2024-02-14T09:58:33;11.68;;;4.47;;
74510;SDS011;62991;50.040;18.400;2024-02-14T10:01:35;10.80;;;4.80;;
74510;SDS011;62991;50.040;18.400;2024-02-14T10:04:36;3.08;;;1.50;;
74510;SDS011;62991;50.040;18.400;2024-02-14T10:07:41;14.18;;;5.35;;
74510;SDS011;62991;50.040;18.400;2024-02-14T10:13:44;10.50;;;4.50;;
74510;SDS011;62991;50.040;18.400;2024-02-14T10:16:46;9.10;;;3.10;;
74510;SDS011;62991;50.040;18.400;2024-02-14T10:19:59;13.25;;;5.07;;
74510;SDS011;62991;50.040;18.400;2024-02-14T10:23:05;5.05;;;1.67;;
74510;SDS011;62991;50.040;18.400;2024-02-14T10:26:06;6.93;;;3.58;;
74510;SDS011;62991;50.040;18.400;2024-02-14T10:29:07;17.90;;;5.05;;
74510;SDS011;62991;50.040;18.400;2024-02-14T10:32:14;10.38;;;4.32;;
74510;SDS011;62991;50.040;18.400;2024-02-14T10:35:15;5.95;;;2.92;;
74510;SDS011;62991;50.040;18.400;2024-02-14T10:38:17;5.28;;;2.25;;
74510;SDS011;62991;50.040;18.400;2024-02-14T10:41:20;9.52;;;4.43;;
74510;SDS011;62991;50.040;18.400;2024-02-14T10:44:20;9.30;;;4.13;;
74510;SDS011;62991;50.040;18.400;2024-02-14T10:47:21;8.43;;;3.10;;
74510;SDS011;62991;50.040;18.400;2024-02-14T10:50:29;9.13;;;3.78;;
74510;SDS011;62991;50.040;18.400;2024-02-14T10:53:36;5.22;;;2.63;;
74510;SDS011;62991;50.040;18.400;2024-02-14T10:56:47;7.82;;;2.63;;
74510;SDS011;62991;50.040;18.400;2024-02-14T10:59:52;9.40;;;3.95;;
74510;SDS011;62991;50.040;18.400;2024-02-14T11:02:54;9.77;;;3.92;;
74510;SDS011;62991;50.040;18.400;2024-02-14T11:05:55;11.95;;;4.72;;
74510;SDS011;62991;50.040;18.400;2024-02-14T11:09:03;5.80;;;3.25;;
74510;SDS011;62991;50.040;18.400;2024-02-14T11:12:08;9.40;;;4.20;;
74510;SDS011;62991;50.040;18.400;2024-02-14T11:15:17;9.35;;;3.58;;
74510;SDS011;62991;50.040;18.400;2024-02-14T11:18:25;7.57;;;1.98;;
74510;SDS011;62991;50.040;18.400;2024-02-14T11:21:28;11.13;;;4.72;;
74510;SDS011;62991;50.040;18.400;2024-02-14T11:24:30;7.45;;;3.35;;
74510;SDS011;62991;50.040;18.400;2024-02-14T11:27:32;20.20;;;7.20;;
74510;SDS011;62991;50.040;18.400;2024-02-14T11:30:35;14.52;;;4.80;;
74510;SDS011;62991;50.040;18.400;2024-02-14T11:33:36;7.35;;;3.53;;
74510;SDS011;62991;50.040;18.400;2024-02-14T11:36:37;10.57;;;4.05;;
74510;SDS011;62991;50.040;18.400;2024-02-14T11:39:40;8.75;;;4.00;;
74510;SDS011;62991;50.040;18.400;2024-02-14T11:42:40;11.07;;;4.35;;
74510;SDS011;62991;50.040;18.400;2024-02-14T11:45:41;10.35;;;4.20;;
74510;SDS011;62991;50.040;18.400;2024-02-14T11:48:42;12.38;;;4.45;;
74510;SDS011;62991;50.040;18.400;2024-02-14T11:51:46;19.33;;;7.13;;
74510;SDS011;62991;50.040;18.400;2024-02-14T11:54:47;9.90;;;4.13;;
74510;SDS011;62991;50.040;18.400;2024-02-14T11:57:51;12.88;;;3.88;;
74510;SDS011;62991;50.040;18.400;2024-02-14T12:00:52;11.35;;;3.50;;
74510;SDS011;62991;50.040;18.400;2024-02-14T12:03:53;9.82;;;4.40;;
74510;SDS011;62991;50.040;18.400;2024-02-14T12:06:54;13.98;;;4.50;;
74510;SDS011;62991;50.040;18.400;2024-02-14T12:09:55;7.75;;;2.83;;
74510;SDS011;62991;50.040;18.400;2024-02-14T12:12:56;11.55;;;3.65;;
74510;SDS011;62991;50.040;18.400;2024-02-14T12:15:57;7.78;;;3.67;;
74510;SDS011;62991;50.040;18.400;2024-02-14T12:19:06;8.60;;;4.00;;
74510;SDS011;62991;50.040;18.400;2024-02-14T12:22:09;6.95;;;3.00;;
74510;SDS011;62991;50.040;18.400;2024-02-14T12:25:17;6.35;;;2.88;;
74510;SDS011;62991;50.040;18.400;2024-02-14T12:28:18;16.85;;;5.85;;
74510;SDS011;62991;50.040;18.400;2024-02-14T12:31:23;11.93;;;4.47;;
74510;SDS011;62991;50.040;18.400;2024-02-14T12:34:24;13.93;;;3.60;;
74510;SDS011;62991;50.040;18.400;2024-02-14T12:37:28;21.33;;;7.78;;
74510;SDS011;62991;50.040;18.400;2024-02-14T12:40:29;9.38;;;3.90;;
74510;SDS011;62991;50.040;18.400;2024-02-14T12:43:29;8.82;;;4.32;;
74510;SDS011;62991;50.040;18.400;2024-02-14T12:46:30;11.20;;;4.63;;
74510;SDS011;62991;50.040;18.400;2024-02-14T12:49:31;10.57;;;4.28;;
74510;SDS011;62991;50.040;18.400;2024-02-14T12:52:32;9.43;;;4.10;;
74510;SDS011;62991;50.040;18.400;2024-02-14T12:55:32;13.27;;;4.78;;
74510;SDS011;62991;50.040;18.400;2024-02-14T12:58:33;6.72;;;3.35;;
74510;SDS011;62991;50.040;18.400;2024-02-14T13:01:34;11.18;;;3.97;;
74510;SDS011;62991;50.040;18.400;2024-02-14T13:04:35;9.05;;;4.15;;
74510;SDS011;62991;50.040;18.400;2024-02-14T13:07:36;9.02;;;3.92;;
74510;SDS011;62991;50.040;18.400;2024-02-14T13:10:38;10.55;;;4.82;;
74510;SDS011;62991;50.040;18.400;2024-02-14T13:13:39;11.07;;;4.47;;
74510;SDS011;62991;50.040;18.400;2024-02-14T13:16:42;14.50;;;6.78;;
74510;SDS011;62991;50.040;18.400;2024-02-14T13:19:42;10.68;;;4.47;;
74510;SDS011;62991;50.040;18.400;2024-02-14T13:22:43;12.88;;;5.53;;
74510;SDS011;62991;50.040;18.400;2024-02-14T13:25:44;13.93;;;5.68;;
74510;SDS011;62991;50.040;18.400;2024-02-14T13:28:45;7.25;;;3.10;;
74510;SDS011;62991;50.040;18.400;2024-02-14T13:31:45;9.43;;;4.57;;
74510;SDS011;62991;50.040;18.400;2024-02-14T13:34:46;7.88;;;2.95;;
74510;SDS011;62991;50.040;18.400;2024-02-14T13:37:48;8.23;;;3.97;;
74510;SDS011;62991;50.040;18.400;2024-02-14T13:40:49;10.93;;;3.95;;
74510;SDS011;62991;50.040;18.400;2024-02-14T13:43:51;6.60;;;3.55;;
74510;SDS011;62991;50.040;18.400;2024-02-14T13:46:51;10.95;;;4.05;;
74510;SDS011;62991;50.040;18.400;2024-02-14T13:49:53;9.25;;;4.35;;
74510;SDS011;62991;50.040;18.400;2024-02-14T13:52:53;12.07;;;4.60;;
74510;SDS011;62991;50.040;18.400;2024-02-14T13:55:54;13.43;;;4.55;;
74510;SDS011;62991;50.040;18.400;2024-02-14T13:58:56;9.23;;;4.07;;
74510;SDS011;62991;50.040;18.400;2024-02-14T14:01:56;18.92;;;7.18;;
74510;SDS011;62991;50.040;18.400;2024-02-14T14:04:57;9.13;;;3.38;;
74510;SDS011;62991;50.040;18.400;2024-02-14T14:07:58;17.35;;;6.43;;
74510;SDS011;62991;50.040;18.400;2024-02-14T14:11:00;9.73;;;5.35;;
74510;SDS011;62991;50.040;18.400;2024-02-14T14:14:02;15.73;;;6.15;;
74510;SDS011;62991;50.040;18.400;2024-02-14T14:17:03;20.33;;;6.32;;
74510;SDS011;62991;50.040;18.400;2024-02-14T14:20:16;17.02;;;6.68;;
74510;SDS011;62991;50.040;18.400;2024-02-14T14:23:19;29.25;;;10.35;;
74510;SDS011;62991;50.040;18.400;2024-02-14T14:26:19;19.58;;;7.88;;
74510;SDS011;62991;50.040;18.400;2024-02-14T14:29:20;13.65;;;4.70;;
74510;SDS011;62991;50.040;18.400;2024-02-14T14:32:22;18.73;;;4.60;;
74510;SDS011;62991;50.040;18.400;2024-02-14T14:35:23;12.20;;;4.88;;
74510;SDS011;62991;50.040;18.400;2024-02-14T14:38:24;7.43;;;3.30;;
74510;SDS011;62991;50.040;18.400;2024-02-14T14:41:26;15.32;;;6.28;;
74510;SDS011;62991;50.040;18.400;2024-02-14T14:44:28;16.92;;;6.47;;
74510;SDS011;62991;50.040;18.400;2024-02-14T14:47:30;24.60;;;6.55;;
74510;SDS011;62991;50.040;18.400;2024-02-14T14:50:31;9.82;;;4.07;;
74510;SDS011;62991;50.040;18.400;2024-02-14T14:53:32;14.73;;;5.32;;
74510;SDS011;62991;50.040;18.400;2024-02-14T14:56:34;14.48;;;4.70;;
74510;SDS011;62991;50.040;18.400;2024-02-14T14:59:35;14.38;;;5.18;;
74510;SDS011;62991;50.040;18.400;2024-02-14T15:02:37;23.95;;;7.65;;
74510;SDS011;62991;50.040;18.400;2024-02-14T15:05:40;19.67;;;7.82;;
74510;SDS011;62991;50.040;18.400;2024-02-14T15:08:41;22.95;;;7.75;;
74510;SDS011;62991;50.040;18.400;2024-02-14T15:11:43;22.58;;;7.65;;
74510;SDS011;62991;50.040;18.400;2024-02-14T15:14:44;23.58;;;7.05;;
74510;SDS011;62991;50.040;18.400;2024-02-14T15:17:45;22.70;;;7.72;;
74510;SDS011;62991;50.040;18.400;2024-02-14T15:20:45;17.83;;;6.95;;
74510;SDS011;62991;50.040;18.400;2024-02-14T15:23:46;15.73;;;6.55;;
74510;SDS011;62991;50.040;18.400;2024-02-14T15:26:47;30.02;;;9.63;;
74510;SDS011;62991;50.040;18.400;2024-02-14T15:29:59;17.75;;;7.40;;
74510;SDS011;62991;50.040;18.400;2024-02-14T15:33:18;22.13;;;7.13;;
74510;SDS011;62991;50.040;18.400;2024-02-14T15:36:26;23.63;;;7.60;;
74510;SDS011;62991;50.040;18.400;2024-02-14T15:39:26;24.98;;;8.27;;
74510;SDS011;62991;50.040;18.400;2024-02-14T15:42:27;19.40;;;7.32;;
74510;SDS011;62991;50.040;18.400;2024-02-14T15:45:28;20.58;;;8.65;;
74510;SDS011;62991;50.040;18.400;2024-02-14T15:48:29;12.68;;;5.00;;
74510;SDS011;62991;50.040;18.400;2024-02-14T15:51:30;12.27;;;4.68;;
74510;SDS011;62991;50.040;18.400;2024-02-14T15:54:31;16.25;;;6.50;;
74510;SDS011;62991;50.040;18.400;2024-02-14T15:57:34;26.45;;;7.18;;
74510;SDS011;62991;50.040;18.400;2024-02-14T16:00:35;20.88;;;6.80;;
74510;SDS011;62991;50.040;18.400;2024-02-14T16:03:35;17.63;;;6.63;;
74510;SDS011;62991;50.040;18.400;2024-02-14T16:06:36;17.13;;;6.63;;
74510;SDS011;62991;50.040;18.400;2024-02-14T16:09:37;21.48;;;7.95;;
74510;SDS011;62991;50.040;18.400;2024-02-14T16:12:38;29.63;;;9.10;;
74510;SDS011;62991;50.040;18.400;2024-02-14T16:15:40;27.83;;;10.23;;
74510;SDS011;62991;50.040;18.400;2024-02-14T16:18:40;24.48;;;7.97;;
74510;SDS011;62991;50.040;18.400;2024-02-14T16:21:41;18.95;;;7.70;;
74510;SDS011;62991;50.040;18.400;2024-02-14T16:24:42;28.20;;;9.30;;
74510;SDS011;62991;50.040;18.400;2024-02-14T16:27:42;42.72;;;12.73;;
74510;SDS011;62991;50.040;18.400;2024-02-14T16:30:45;24.40;;;7.93;;
74510;SDS011;62991;50.040;18.400;2024-02-14T16:33:46;24.45;;;9.77;;
74510;SDS011;62991;50.040;18.400;2024-02-14T16:36:48;18.27;;;7.10;;
74510;SDS011;62991;50.040;18.400;2024-02-14T16:39:50;26.05;;;11.20;;
74510;SDS011;62991;50.040;18.400;2024-02-14T16:42:50;24.83;;;10.25;;
74510;SDS011;62991;50.040;18.400;2024-02-14T16:45:51;26.08;;;10.10;;
74510;SDS011;62991;50.040;18.400;2024-02-14T16:48:52;33.58;;;11.30;;
74510;SDS011;62991;50.040;18.400;2024-02-14T16:51:53;51.45;;;15.50;;
74510;SDS011;62991;50.040;18.400;2024-02-14T16:54:53;38.10;;;13.40;;
74510;SDS011;62991;50.040;18.400;2024-02-14T16:57:54;30.50;;;12.82;;
74510;SDS011;62991;50.040;18.400;2024-02-14T17:00:56;39.67;;;14.93;;
74510;SDS011;62991;50.040;18.400;2024-02-14T17:03:57;44.58;;;15.43;;
74510;SDS011;62991;50.040;18.400;2024-02-14T17:06:57;35.17;;;13.75;;
74510;SDS011;62991;50.040;18.400;2024-02-14T17:09:58;36.95;;;14.43;;
74510;SDS011;62991;50.040;18.400;2024-02-14T17:12:59;39.72;;;15.55;;
74510;SDS011;62991;50.040;18.400;2024-02-14T17:16:00;42.00;;;14.85;;
74510;SDS011;62991;50.040;18.400;2024-02-14T17:19:01;32.38;;;11.98;;
74510;SDS011;62991;50.040;18.400;2024-02-14T17:22:02;41.70;;;14.20;;
74510;SDS011;62991;50.040;18.400;2024-02-14T17:25:05;39.65;;;14.75;;
74510;SDS011;62991;50.040;18.400;2024-02-14T17:28:07;44.88;;;16.67;;
74510;SDS011;62991;50.040;18.400;2024-02-14T17:31:08;42.08;;;15.63;;
74510;SDS011;62991;50.040;18.400;2024-02-14T17:34:10;33.70;;;13.20;;
74510;SDS011;62991;50.040;18.400;2024-02-14T17:37:11;32.13;;;10.93;;